Time;durP1;ratioP1;P1;durP2;ratioP2;P2;SDS_P1;SDS_P2;PMS_P1;PMS_P2;Temp;Humidity;BMP_temperature;BMP_pressure;BME280_temperature;BME280_humidity;BME280_pressure;Samples;Min_cycle;Max_cycle;Signal;HPM_P1;HPM_P2
2022/06/21 00:02:21;;;;;;;13.07;4.70;;;20.20;99.90;;;;;;5047608;28;20652;-81
2022/06/21 00:04:48;;;;;;;12.57;5.33;;;20.20;99.90;;;;;;5017045;28;20191;-82
2022/06/21 00:07:32;;;;;;;12.70;5.27;;;20.10;99.90;;;;;;5032085;28;20183;-81
2022/06/21 00:09:59;;;;;;;12.73;5.10;;;20.10;99.90;;;;;;5030108;28;20237;-82
2022/06/21 00:12:26;;;;;;;10.93;4.80;;;20.10;99.90;;;;;;5029676;28;20190;-81
2022/06/21 00:14:52;;;;;;;12.67;5.53;;;20.10;99.90;;;;;;5031019;28;20237;-81
2022/06/21 00:17:30;;;;;;;9.57;4.87;;;20.10;99.90;;;;;;5031875;28;20199;-81
2022/06/21 00:19:56;;;;;;;13.37;4.93;;;20.10;99.90;;;;;;5014497;28;20257;-81
2022/06/21 00:22:23;;;;;;;14.77;4.90;;;20.10;99.90;;;;;;5015050;28;20283;-81
2022/06/21 00:24:51;;;;;;;13.50;4.83;;;20.10;99.90;;;;;;5037173;28;20632;-81
2022/06/21 00:27:21;;;;;;;8.97;5.10;;;20.10;99.90;;;;;;5036078;28;20203;-81
2022/06/21 00:29:48;;;;;;;10.07;4.47;;;20.10;99.90;;;;;;5050807;28;20892;-81
2022/06/21 00:32:20;;;;;;;16.47;5.57;;;20.10;99.90;;;;;;5052021;28;20184;-81
2022/06/21 00:34:47;;;;;;;14.17;5.37;;;20.10;99.90;;;;;;5033033;28;20652;-81
2022/06/21 00:37:22;;;;;;;12.43;4.80;;;20.00;99.90;;;;;;5020405;28;20208;-82
2022/06/21 00:39:51;;;;;;;9.37;4.33;;;20.10;99.90;;;;;;5037591;28;20182;-82
2022/06/21 00:42:29;;;;;;;10.93;4.60;;;20.10;99.90;;;;;;5050691;28;20198;-81
2022/06/21 00:45:11;;;;;;;11.87;5.00;;;20.10;99.90;;;;;;5057953;28;20554;-81
2022/06/21 00:47:54;;;;;;;12.87;4.73;;;20.10;99.90;;;;;;5047696;28;20537;-81
2022/06/21 00:50:31;;;;;;;9.73;4.67;;;20.00;99.90;;;;;;5030293;28;20248;-81
2022/06/21 00:53:13;;;;;;;15.73;4.67;;;20.00;99.90;;;;;;5050416;28;20586;-81
2022/06/21 00:56:02;;;;;;;12.57;5.40;;;20.00;99.90;;;;;;5033520;28;20180;-81
2022/06/21 00:58:31;;;;;;;13.93;5.30;;;20.00;99.90;;;;;;5052058;28;20196;-81
2022/06/21 01:01:22;;;;;;;11.47;4.53;;;20.00;99.90;;;;;;5044777;28;20196;-81
2022/06/21 01:03:58;;;;;;;13.57;4.60;;;20.00;99.90;;;;;;5034042;28;20229;-81
2022/06/21 01:06:40;;;;;;;17.63;4.83;;;20.00;99.90;;;;;;5067376;28;20275;-81
2022/06/21 01:09:33;;;;;;;17.07;4.87;;;19.90;99.90;;;;;;5044431;28;20218;-81
2022/06/21 01:12:53;;;;;;;12.00;4.27;;;19.90;99.90;;;;;;5046788;28;20176;-81
2022/06/21 01:15:45;;;;;;;13.43;4.67;;;19.80;99.90;;;;;;5035951;28;20190;-81
2022/06/21 01:18:17;;;;;;;10.90;4.30;;;19.90;99.90;;;;;;5030789;28;20196;-81
2022/06/21 01:20:51;;;;;;;11.30;4.30;;;19.90;99.90;;;;;;5044951;28;20672;-82
2022/06/21 01:24:02;;;;;;;14.73;4.77;;;19.90;99.90;;;;;;5043415;28;20742;-81
2022/06/21 01:26:57;;;;;;;11.67;4.03;;;19.80;99.90;;;;;;5008531;28;20195;-81
2022/06/21 01:29:31;;;;;;;10.30;4.07;;;19.80;99.90;;;;;;5017544;28;20176;-81
2022/06/21 01:32:03;;;;;;;8.83;4.50;;;19.80;99.90;;;;;;5017225;28;20184;-81
2022/06/21 01:34:30;;;;;;;13.17;4.03;;;19.80;99.90;;;;;;5022176;28;20195;-81
2022/06/21 01:37:18;;;;;;;14.40;4.70;;;19.90;99.90;;;;;;5047017;28;20279;-81
2022/06/21 01:40:18;;;;;;;13.73;4.43;;;19.80;99.90;;;;;;5053978;28;20244;-81
2022/06/21 01:43:06;;;;;;;15.73;4.57;;;19.90;99.90;;;;;;5053036;28;20209;-82
2022/06/21 01:45:43;;;;;;;11.57;3.77;;;19.80;99.90;;;;;;5037669;28;20267;-82
2022/06/21 01:48:22;;;;;;;10.43;3.83;;;19.80;99.90;;;;;;5034184;28;20183;-81
2022/06/21 01:50:54;;;;;;;12.83;4.57;;;19.80;99.90;;;;;;5033746;28;20207;-81
2022/06/21 01:53:24;;;;;;;8.80;3.37;;;19.80;99.90;;;;;;5050573;28;20215;-81
2022/06/21 01:55:59;;;;;;;16.13;4.73;;;19.80;99.90;;;;;;5051852;28;20221;-81
2022/06/21 01:58:35;;;;;;;9.40;4.30;;;19.80;99.90;;;;;;5070360;28;20176;-81
2022/06/21 02:01:36;;;;;;;11.70;4.10;;;19.80;99.90;;;;;;5034555;28;20206;-81
2022/06/21 02:04:05;;;;;;;9.40;3.80;;;19.70;99.90;;;;;;5020249;28;20282;-81
2022/06/21 02:06:39;;;;;;;9.97;3.93;;;19.80;99.90;;;;;;5053673;28;20187;-81
2022/06/21 02:09:42;;;;;;;15.33;4.37;;;19.90;99.90;;;;;;5053556;28;20524;-81
2022/06/21 02:12:14;;;;;;;12.83;4.60;;;20.00;99.90;;;;;;5037580;28;20184;-81
2022/06/21 02:14:56;;;;;;;9.30;4.13;;;20.00;99.90;;;;;;5060529;28;20207;-82
2022/06/21 02:17:31;;;;;;;20.53;4.53;;;20.00;99.90;;;;;;5035951;28;20188;-82
2022/06/21 02:20:23;;;;;;;10.57;4.50;;;20.00;99.90;;;;;;5032464;28;20176;-81
2022/06/21 02:22:51;;;;;;;9.37;4.03;;;20.00;99.90;;;;;;5061911;28;20195;-82
2022/06/21 02:25:23;;;;;;;14.80;4.70;;;20.10;99.90;;;;;;5035538;28;20183;-81
2022/06/21 02:28:00;;;;;;;12.53;4.27;;;20.00;99.90;;;;;;5039003;28;20187;-81
2022/06/21 02:30:29;;;;;;;11.70;4.10;;;20.00;99.90;;;;;;5040167;28;20547;-81
2022/06/21 02:33:00;;;;;;;13.20;4.47;;;20.10;99.90;;;;;;5051999;28;20293;-83
2022/06/21 02:35:40;;;;;;;11.33;4.53;;;20.10;99.90;;;;;;5051096;28;20188;-81
2022/06/21 02:38:33;;;;;;;12.10;4.40;;;20.10;99.90;;;;;;5047172;28;20192;-82
2022/06/21 02:41:18;;;;;;;11.40;4.03;;;20.20;99.90;;;;;;5038152;28;20235;-81
2022/06/21 02:44:13;;;;;;;13.97;4.10;;;20.20;99.90;;;;;;5034876;28;20222;-81
2022/06/21 02:46:59;;;;;;;15.93;4.23;;;20.20;99.90;;;;;;5068017;28;20271;-81
2022/06/21 02:49:51;;;;;;;14.10;4.00;;;20.30;99.90;;;;;;5034786;28;20275;-82
2022/06/21 02:52:36;;;;;;;13.77;4.43;;;20.30;99.90;;;;;;5034910;28;20771;-82
2022/06/21 02:55:43;;;;;;;15.30;4.83;;;20.30;99.90;;;;;;5069206;28;20183;-81
2022/06/21 02:58:28;;;;;;;16.47;4.43;;;20.30;99.90;;;;;;5066668;28;20857;-81
2022/06/21 03:00:56;;;;;;;15.40;4.47;;;20.30;99.90;;;;;;5026700;28;20203;-82
2022/06/21 03:03:30;;;;;;;11.43;4.30;;;20.30;99.90;;;;;;5039298;28;20185;-82
2022/06/21 03:06:03;;;;;;;12.37;4.40;;;20.30;99.90;;;;;;5035817;28;20894;-81
2022/06/21 03:08:33;;;;;;;14.13;4.50;;;20.30;99.90;;;;;;5068964;28;20192;-81
2022/06/21 03:11:01;;;;;;;13.10;4.40;;;20.30;99.90;;;;;;5035129;28;20273;-81
2022/06/21 03:13:34;;;;;;;10.47;4.30;;;20.30;99.90;;;;;;5053410;28;20188;-81
2022/06/21 03:16:16;;;;;;;12.30;4.43;;;20.40;99.90;;;;;;5036086;28;20210;-82
2022/06/21 03:18:59;;;;;;;9.90;4.40;;;20.40;99.90;;;;;;5035211;28;20206;-82
2022/06/21 03:21:34;;;;;;;13.07;4.13;;;20.30;99.90;;;;;;5033773;28;20572;-82
2022/06/21 03:24:09;;;;;;;10.73;4.40;;;20.30;99.90;;;;;;5031917;28;20525;-81
2022/06/21 03:26:39;;;;;;;16.27;4.67;;;20.40;99.90;;;;;;5015340;28;20187;-81
2022/06/21 03:29:08;;;;;;;15.20;4.83;;;20.40;99.90;;;;;;5048264;28;20239;-81
2022/06/21 03:31:42;;;;;;;16.00;4.23;;;20.50;99.90;;;;;;5014727;28;20607;-82
2022/06/21 03:34:18;;;;;;;11.17;4.63;;;20.50;99.90;;;;;;5014946;28;20215;-82
2022/06/21 03:36:45;;;;;;;18.00;4.67;;;20.50;99.90;;;;;;5031923;28;20786;-82
2022/06/21 03:41:42;;;;;;;13.60;4.27;;;20.60;99.90;;;;;;5044082;28;20196;-81
2022/06/21 03:42:16;;;;;;;11.63;4.20;;;20.60;99.90;;;;;;5035043;28;20212;-82
2022/06/21 03:45:01;;;;;;;12.30;4.10;;;20.60;99.90;;;;;;5042796;28;20223;-82
2022/06/21 03:47:46;;;;;;;18.40;4.93;;;20.70;99.90;;;;;;5031841;28;20184;-82
2022/06/21 03:50:21;;;;;;;16.03;4.83;;;20.70;99.90;;;;;;5033469;28;20188;-82
2022/06/21 03:53:08;;;;;;;9.10;4.17;;;20.70;99.90;;;;;;5050437;28;20186;-82
2022/06/21 03:56:05;;;;;;;17.80;4.43;;;20.80;99.90;;;;;;5031529;28;20189;-82
2022/06/21 03:59:07;;;;;;;14.07;4.50;;;20.80;99.90;;;;;;5031373;28;20599;-82
2022/06/21 04:02:21;;;;;;;14.80;4.90;;;20.90;99.90;;;;;;5043977;28;20219;-82
2022/06/21 04:05:03;;;;;;;12.50;4.60;;;21.00;99.90;;;;;;5019709;28;20667;-82
2022/06/21 04:07:52;;;;;;;12.67;4.90;;;21.00;99.90;;;;;;5041128;28;20632;-82
2022/06/21 04:10:46;;;;;;;13.93;4.33;;;21.10;99.90;;;;;;5034398;28;20591;-82
2022/06/21 04:13:34;;;;;;;14.13;4.47;;;21.20;99.90;;;;;;5046980;28;20193;-82
2022/06/21 04:16:20;;;;;;;14.30;4.40;;;21.20;99.90;;;;;;5014728;28;20271;-82
2022/06/21 04:19:17;;;;;;;15.63;4.93;;;21.30;99.90;;;;;;5031214;28;20194;-82
2022/06/21 04:22:18;;;;;;;12.87;4.47;;;21.30;99.90;;;;;;5029804;28;20634;-82
2022/06/21 04:25:17;;;;;;;16.67;4.80;;;21.40;99.90;;;;;;5033860;28;20210;-82
2022/06/21 04:27:50;;;;;;;15.77;5.03;;;21.50;99.90;;;;;;5050911;28;20593;-82
2022/06/21 04:30:28;;;;;;;17.47;4.97;;;21.50;99.90;;;;;;5052078;28;20233;-82
2022/06/21 04:33:15;;;;;;;20.87;5.63;;;21.50;99.90;;;;;;5047859;28;20571;-82
2022/06/21 04:36:10;;;;;;;9.47;4.20;;;21.60;99.90;;;;;;5030754;28;20192;-82
2022/06/21 04:39:17;;;;;;;15.23;4.33;;;21.70;99.90;;;;;;5030810;28;20263;-82
2022/06/21 04:42:00;;;;;;;14.03;5.50;;;21.70;99.90;;;;;;5013851;28;20261;-82
2022/06/21 04:44:50;;;;;;;13.10;5.20;;;21.70;99.90;;;;;;5025091;28;20640;-82
2022/06/21 04:47:42;;;;;;;15.37;4.93;;;21.70;99.90;;;;;;5022722;28;20216;-82
2022/06/21 04:50:41;;;;;;;14.97;5.80;;;21.80;99.90;;;;;;5046735;28;20191;-82
2022/06/21 04:53:11;;;;;;;14.97;5.47;;;21.90;99.90;;;;;;5030097;28;20184;-82
2022/06/21 04:56:05;;;;;;;10.27;4.93;;;21.90;99.90;;;;;;5026466;28;20273;-82
2022/06/21 04:58:32;;;;;;;12.70;5.50;;;21.90;99.90;;;;;;5053995;28;20232;-82
2022/06/21 05:01:29;;;;;;;9.93;5.23;;;22.00;99.90;;;;;;5054212;28;20203;-82
2022/06/21 05:03:47;;;;;;;13.97;5.17;;;21.90;99.90;;;;;;5055466;28;20548;-82
2022/06/21 05:06:16;;;;;;;16.83;5.27;;;21.80;99.90;;;;;;5037664;28;20244;-82
2022/06/21 05:08:48;;;;;;;13.00;5.10;;;21.70;99.90;;;;;;5034497;28;20184;-82
2022/06/21 05:11:18;;;;;;;24.00;5.73;;;21.70;99.90;;;;;;5036373;28;20173;-82
2022/06/21 05:13:49;;;;;;;18.47;5.63;;;21.70;99.90;;;;;;5036917;28;20329;-82
2022/06/21 05:16:50;;;;;;;10.03;4.47;;;21.80;99.90;;;;;;5034608;28;20176;-82
2022/06/21 05:19:32;;;;;;;9.87;5.17;;;21.80;99.90;;;;;;5033746;28;20704;-82
2022/06/21 05:22:27;;;;;;;14.57;5.23;;;21.80;99.90;;;;;;5050607;28;20694;-82
2022/06/21 05:24:56;;;;;;;11.63;4.53;;;21.80;99.90;;;;;;5037879;28;20211;-83
2022/06/21 05:27:44;;;;;;;12.77;4.82;;;21.80;99.90;;;;;;5033636;28;20185;-82
2022/06/21 05:31:00;;;;;;;13.95;5.15;;;21.80;99.90;;;;;;5035229;28;20180;-82
2022/06/21 05:33:44;;;;;;;11.23;4.50;;;22.00;99.90;;;;;;5045613;28;20298;-82
2022/06/21 05:36:28;;;;;;;13.30;4.93;;;22.10;99.90;;;;;;5042449;28;20184;-82
2022/06/21 05:39:12;;;;;;;11.60;4.37;;;22.20;99.90;;;;;;5036171;28;20184;-82
2022/06/21 05:41:58;;;;;;;9.98;4.35;;;22.20;99.90;;;;;;5036560;28;20210;-82
2022/06/21 05:44:45;;;;;;;13.87;4.57;;;22.20;99.90;;;;;;5026690;28;20264;-83
2022/06/21 05:47:31;;;;;;;14.38;4.15;;;22.20;99.90;;;;;;5044052;28;20191;-82
2022/06/21 05:50:07;;;;;;;10.70;4.63;;;22.30;99.90;;;;;;5035383;28;20192;-83
2022/06/21 05:52:49;;;;;;;13.57;4.67;;;22.30;99.90;;;;;;5036311;28;20523;-83
2022/06/21 05:55:37;;;;;;;14.20;4.73;;;22.40;99.90;;;;;;5032386;28;20188;-83
2022/06/21 05:58:32;;;;;;;16.53;3.77;;;22.50;99.90;;;;;;5038672;28;20191;-83
2022/06/21 06:01:29;;;;;;;12.88;3.90;;;22.50;99.90;;;;;;5029500;28;20203;-83
2022/06/21 06:04:35;;;;;;;10.85;3.83;;;22.50;99.90;;;;;;5019949;28;20195;-83
2022/06/21 06:07:04;;;;;;;8.93;3.03;;;22.50;99.90;;;;;;5024034;28;20222;-83
2022/06/21 06:09:46;;;;;;;16.92;4.13;;;22.70;99.90;;;;;;5038676;28;20596;-83
2022/06/21 06:12:32;;;;;;;11.27;3.50;;;22.70;99.90;;;;;;5046302;28;20188;-82
2022/06/21 06:15:12;;;;;;;14.73;4.05;;;22.80;99.90;;;;;;5051125;28;20192;-83
2022/06/21 06:18:14;;;;;;;10.20;3.28;;;22.80;99.90;;;;;;5029740;28;20188;-82
2022/06/21 06:21:05;;;;;;;11.82;3.70;;;22.90;99.90;;;;;;5035413;28;20203;-82
2022/06/21 06:23:45;;;;;;;9.27;3.70;;;22.90;99.90;;;;;;5047229;28;20190;-83
2022/06/21 06:26:29;;;;;;;8.93;2.97;;;22.90;99.90;;;;;;5035248;28;20187;-83
2022/06/21 06:29:24;;;;;;;15.38;3.30;;;22.90;99.90;;;;;;5026703;28;20199;-82
2022/06/21 06:32:45;;;;;;;11.70;3.17;;;23.10;99.90;;;;;;5026674;28;20207;-82
2022/06/21 06:35:27;;;;;;;11.52;3.25;;;23.10;99.90;;;;;;5035114;28;20723;-83
2022/06/21 06:37:56;;;;;;;9.98;3.13;;;23.20;99.90;;;;;;5025404;28;20227;-83
2022/06/21 06:40:35;;;;;;;7.55;2.90;;;23.20;99.90;;;;;;5039008;28;23839;-83
2022/06/21 06:43:31;;;;;;;11.00;3.58;;;23.30;99.90;;;;;;5044459;28;20188;-82
2022/06/21 06:45:58;;;;;;;9.60;2.83;;;23.30;99.90;;;;;;5032807;28;20286;-83
2022/06/21 06:48:39;;;;;;;13.50;3.22;;;23.30;99.90;;;;;;5038732;28;20594;-83
2022/06/21 06:51:15;;;;;;;19.40;3.05;;;23.30;99.90;;;;;;5072865;28;20184;-83
2022/06/21 06:53:56;;;;;;;13.35;3.00;;;23.20;99.90;;;;;;5056470;28;20752;-83
2022/06/21 06:57:00;;;;;;;11.88;2.92;;;23.20;99.90;;;;;;5032923;28;20732;-82
2022/06/21 06:59:26;;;;;;;11.88;3.28;;;23.40;99.90;;;;;;5028715;28;20213;-82
2022/06/21 07:02:35;;;;;;;11.65;2.90;;;23.50;99.90;;;;;;5028722;28;20211;-84
2022/06/21 07:05:39;;;;;;;10.93;3.33;;;23.50;99.90;;;;;;5049486;28;20195;-83
2022/06/21 07:08:40;;;;;;;8.40;2.92;;;23.50;99.90;;;;;;5032178;28;20595;-83
2022/06/21 07:11:35;;;;;;;11.75;3.05;;;23.70;99.90;;;;;;5041045;28;20679;-83
2022/06/21 07:14:04;;;;;;;12.25;2.70;;;23.80;99.90;;;;;;5046393;28;20619;-83
2022/06/21 07:16:51;;;;;;;12.52;2.72;;;23.70;99.90;;;;;;5035644;28;20177;-83
2022/06/21 07:19:21;;;;;;;13.25;3.15;;;23.90;99.90;;;;;;5035157;28;20187;-82
2022/06/21 07:21:49;;;;;;;11.23;2.97;;;23.80;99.90;;;;;;5039245;28;20196;-83
2022/06/21 07:24:20;;;;;;;9.27;2.58;;;23.90;99.90;;;;;;5033438;28;20805;-83
2022/06/21 07:27:03;;;;;;;13.05;2.92;;;24.00;99.90;;;;;;5035004;28;20195;-83
2022/06/21 07:30:03;;;;;;;6.80;2.25;;;24.00;99.90;;;;;;5050490;28;20192;-83
2022/06/21 07:32:50;;;;;;;8.95;2.67;;;24.00;99.90;;;;;;5035959;28;20611;-84
2022/06/21 07:35:50;;;;;;;11.80;3.13;;;24.00;99.90;;;;;;5031183;28;20196;-85
2022/06/21 07:38:43;;;;;;;9.48;3.05;;;23.90;99.90;;;;;;5045920;28;20183;-84
2022/06/21 07:41:32;;;;;;;13.73;2.92;;;24.00;99.90;;;;;;5030766;28;20295;-84
2022/06/21 07:44:15;;;;;;;15.70;2.40;;;24.10;99.90;;;;;;5031143;28;20187;-84
2022/06/21 07:46:52;;;;;;;13.35;2.60;;;24.30;99.90;;;;;;5034692;28;20180;-84
2022/06/21 07:49:55;;;;;;;7.57;2.28;;;24.30;99.90;;;;;;5034260;28;20641;-83
2022/06/21 07:52:42;;;;;;;9.18;3.08;;;24.30;99.90;;;;;;5030601;28;20188;-83
2022/06/21 07:55:38;;;;;;;10.00;3.15;;;24.40;99.90;;;;;;5031282;28;20540;-83
2022/06/21 07:58:29;;;;;;;8.85;2.75;;;24.60;99.90;;;;;;5033316;28;20180;-83
2022/06/21 08:06:52;;;;;;;10.52;2.83;;;24.90;99.90;;;;;;5045804;28;20628;-82
2022/06/21 08:09:37;;;;;;;6.82;2.58;;;25.10;99.90;;;;;;5028119;28;20183;-83
2022/06/21 08:12:15;;;;;;;12.77;3.05;;;25.10;99.90;;;;;;5043388;28;20216;-83
2022/06/21 08:14:43;;;;;;;8.93;2.60;;;25.10;99.90;;;;;;5030244;28;20187;-83
2022/06/21 08:17:34;;;;;;;9.13;3.47;;;25.10;99.90;;;;;;5037742;28;20287;-84
2022/06/21 08:20:31;;;;;;;9.32;3.17;;;25.10;99.90;;;;;;5045610;28;20241;-84
2022/06/21 08:23:16;;;;;;;11.38;2.80;;;25.00;99.90;;;;;;5042955;28;20198;-84
2022/06/21 08:26:04;;;;;;;10.10;2.85;;;25.00;99.90;;;;;;5033855;28;20783;-83
2022/06/21 08:28:56;;;;;;;8.57;2.70;;;25.20;99.90;;;;;;5033516;28;20186;-84
2022/06/21 08:31:38;;;;;;;10.20;3.05;;;25.10;99.90;;;;;;5027562;28;20187;-84
2022/06/21 08:34:35;;;;;;;14.90;3.40;;;25.20;99.90;;;;;;5050134;28;20214;-83
2022/06/21 08:37:35;;;;;;;8.80;2.83;;;25.30;99.90;;;;;;5027131;28;20272;-83
2022/06/21 08:41:03;;;;;;;11.20;3.17;;;25.50;99.90;;;;;;5059202;28;20183;-83
2022/06/21 08:44:14;;;;;;;12.23;3.05;;;25.30;99.90;;;;;;5032340;28;20206;-83
2022/06/21 08:47:35;;;;;;;9.27;2.90;;;25.40;99.90;;;;;;5034719;28;20176;-84
2022/06/21 08:50:51;;;;;;;10.82;3.22;;;25.10;99.90;;;;;;5055755;28;20191;-84
2022/06/21 08:53:33;;;;;;;8.27;2.97;;;25.20;99.90;;;;;;5020294;28;20546;-83
2022/06/21 08:56:17;;;;;;;15.95;3.20;;;25.30;99.90;;;;;;5028938;28;20763;-84
2022/06/21 08:59:06;;;;;;;14.07;3.10;;;25.40;99.90;;;;;;5038440;28;20183;-83
2022/06/21 09:01:57;;;;;;;9.65;3.13;;;25.10;99.90;;;;;;5031977;28;20222;-82
2022/06/21 09:05:02;;;;;;;11.13;2.75;;;25.20;99.90;;;;;;5030378;28;20568;-82
2022/06/21 09:08:01;;;;;;;13.57;3.28;;;25.50;99.90;;;;;;5030317;28;20270;-83
2022/06/21 09:10:59;;;;;;;11.98;3.33;;;25.80;99.90;;;;;;5041052;28;20463;-83
2022/06/21 09:14:01;;;;;;;9.68;3.35;;;25.70;99.90;;;;;;5045256;28;20644;-83
2022/06/21 09:16:34;;;;;;;17.73;3.40;;;25.30;99.90;;;;;;5044456;28;20631;-83
2022/06/21 09:19:36;;;;;;;11.18;3.40;;;25.50;99.90;;;;;;5056506;28;20183;-82
2022/06/21 09:22:14;;;;;;;11.45;3.17;;;25.70;99.90;;;;;;5036146;28;20206;-83
2022/06/21 09:25:18;;;;;;;16.73;3.60;;;26.10;99.90;;;;;;5036271;28;20636;-83
2022/06/21 09:27:50;;;;;;;11.05;2.80;;;26.30;99.90;;;;;;5031064;28;20238;-83
2022/06/21 09:30:41;;;;;;;11.02;3.00;;;26.30;99.90;;;;;;5035380;28;20191;-83
2022/06/21 09:33:55;;;;;;;9.60;3.13;;;26.30;99.90;;;;;;5029481;28;20211;-84
2022/06/21 09:36:57;;;;;;;9.43;3.03;;;26.40;99.90;;;;;;5034038;28;20203;-83
2022/06/21 09:39:40;;;;;;;9.43;3.38;;;26.60;99.90;;;;;;5053366;28;20282;-84
2022/06/21 09:42:59;;;;;;;12.38;3.22;;;26.50;99.90;;;;;;5020388;28;20211;-83
2022/06/21 09:45:53;;;;;;;14.70;3.65;;;26.80;99.90;;;;;;5064612;28;20184;-83
2022/06/21 09:48:54;;;;;;;11.27;3.08;;;26.70;99.90;;;;;;5067988;28;20184;-84
2022/06/21 09:51:44;;;;;;;9.18;3.55;;;26.30;99.90;;;;;;5035079;28;20195;-83
2022/06/21 09:55:06;;;;;;;9.07;3.50;;;26.30;99.90;;;;;;5026445;28;20545;-83
2022/06/21 09:58:36;;;;;;;14.70;3.53;;;26.30;99.90;;;;;;5018353;28;20187;-83
2022/06/21 10:01:19;;;;;;;8.23;3.40;;;26.20;99.90;;;;;;5003343;28;20292;-83
2022/06/21 10:04:10;;;;;;;7.72;3.40;;;26.20;99.90;;;;;;5051894;28;20229;-84
2022/06/21 10:07:41;;;;;;;14.63;3.88;;;26.30;99.90;;;;;;5037002;28;20544;-83
2022/06/21 10:10:47;;;;;;;10.50;3.38;;;26.50;99.90;;;;;;5029252;28;20203;-82
2022/06/21 10:13:43;;;;;;;11.88;3.58;;;26.70;99.90;;;;;;5030339;28;20282;-83
2022/06/21 10:16:33;;;;;;;9.52;3.08;;;26.50;99.90;;;;;;5039262;28;20188;-83
2022/06/21 10:19:28;;;;;;;14.93;4.03;;;26.40;99.90;;;;;;5026837;28;20194;-83
2022/06/21 10:22:33;;;;;;;8.38;3.03;;;26.70;99.90;;;;;;5036985;28;20290;-83
2022/06/21 10:25:25;;;;;;;7.32;3.08;;;26.90;99.90;;;;;;5033002;28;20194;-82
2022/06/21 10:28:23;;;;;;;9.80;3.00;;;26.80;99.90;;;;;;5019005;28;20216;-83
2022/06/21 10:31:12;;;;;;;8.43;3.25;;;26.70;99.90;;;;;;5045734;28;20191;-84
2022/06/21 10:34:10;;;;;;;9.27;3.10;;;26.70;99.90;;;;;;5040291;28;20604;-83
2022/06/21 10:37:24;;;;;;;9.57;3.10;;;27.00;99.90;;;;;;5042492;28;20180;-84
2022/06/21 10:40:36;;;;;;;9.52;3.42;;;26.80;99.90;;;;;;5051048;28;20190;-87
2022/06/21 10:43:42;;;;;;;9.45;3.30;;;26.40;99.90;;;;;;5042041;28;20195;-83
2022/06/21 10:46:11;;;;;;;8.27;3.30;;;26.40;99.90;;;;;;5030216;28;20179;-84
2022/06/21 10:49:06;;;;;;;7.95;3.15;;;26.30;99.90;;;;;;5031701;28;20184;-83
2022/06/21 10:52:01;;;;;;;12.82;3.42;;;26.30;99.90;;;;;;5025771;28;20192;-83
2022/06/21 10:54:50;;;;;;;8.35;3.40;;;26.20;99.90;;;;;;5020303;28;20211;-83
2022/06/21 10:57:44;;;;;;;6.28;3.22;;;26.00;99.90;;;;;;5049095;28;20187;-83
2022/06/21 11:04:14;;;;;;;11.43;3.60;;;25.90;99.90;;;;;;5046561;28;20199;-83
2022/06/21 11:07:18;;;;;;;10.23;3.38;;;26.00;99.90;;;;;;5026241;28;20776;-84
2022/06/21 11:10:11;;;;;;;10.57;3.53;;;25.90;99.90;;;;;;5018048;28;20188;-86
2022/06/21 11:12:53;;;;;;;7.13;3.72;;;25.80;99.90;;;;;;5023859;28;20227;-84
2022/06/21 11:15:44;;;;;;;11.10;4.80;;;25.60;99.90;;;;;;5024514;28;20192;-84
2022/06/21 11:18:37;;;;;;;13.68;4.68;;;25.50;99.90;;;;;;5037341;28;20184;-84
2022/06/21 11:21:27;;;;;;;9.25;4.20;;;25.50;99.90;;;;;;5049466;28;20207;-85
2022/06/21 11:24:16;;;;;;;11.15;4.30;;;25.40;99.90;;;;;;5028243;28;20227;-84
2022/06/21 11:27:04;;;;;;;14.25;4.88;;;25.40;99.90;;;;;;5031955;28;20206;-84
2022/06/21 11:29:49;;;;;;;16.15;5.32;;;25.30;99.90;;;;;;5032650;28;20199;-83
2022/06/21 11:32:40;;;;;;;9.93;5.47;;;25.00;99.90;;;;;;5030468;28;20237;-84
2022/06/21 11:35:31;;;;;;;12.50;7.28;;;25.00;99.90;;;;;;5013966;28;20565;-83
2022/06/21 11:38:36;;;;;;;11.45;7.93;;;25.00;99.90;;;;;;5016025;28;20548;-83
2022/06/21 11:42:04;;;;;;;15.25;10.15;;;25.00;99.90;;;;;;5045487;28;20215;-84
2022/06/21 11:44:58;;;;;;;14.10;11.18;;;25.10;99.90;;;;;;5014101;28;20183;-83
2022/06/21 11:47:43;;;;;;;13.55;10.52;;;25.00;99.90;;;;;;5044023;28;20247;-83
2022/06/21 11:50:51;;;;;;;12.32;10.82;;;25.00;99.90;;;;;;5026491;28;20187;-83
2022/06/21 11:53:20;;;;;;;14.05;10.60;;;25.10;99.90;;;;;;5025794;28;20248;-83
2022/06/21 11:56:20;;;;;;;14.35;10.75;;;25.10;99.90;;;;;;5038140;28;20180;-83
2022/06/21 11:58:56;;;;;;;19.45;12.38;;;25.10;99.90;;;;;;5028914;28;20187;-83
2022/06/21 12:01:52;;;;;;;17.75;11.57;;;25.30;99.90;;;;;;5045301;28;20207;-84
2022/06/21 12:05:01;;;;;;;17.42;13.20;;;25.10;99.90;;;;;;5031365;28;20181;-83
2022/06/21 12:07:41;;;;;;;16.10;12.13;;;25.10;99.90;;;;;;5044761;28;20725;-84
2022/06/21 12:10:28;;;;;;;23.27;13.15;;;24.90;99.90;;;;;;5031809;28;20191;-83
2022/06/21 12:13:27;;;;;;;15.93;12.45;;;24.80;99.90;;;;;;5049646;28;20191;-83
2022/06/21 12:16:16;;;;;;;17.83;13.68;;;25.00;99.90;;;;;;5040455;28;20217;-84
2022/06/21 12:18:51;;;;;;;19.25;14.48;;;25.20;99.90;;;;;;5025832;28;20210;-83
2022/06/21 12:21:29;;;;;;;17.52;15.40;;;25.00;99.90;;;;;;5044419;28;20206;-83
2022/06/21 12:24:23;;;;;;;21.63;17.05;;;24.90;99.90;;;;;;5025093;28;20664;-83
2022/06/21 12:26:50;;;;;;;20.80;14.57;;;24.90;99.90;;;;;;5026642;28;20645;-83
2022/06/21 12:29:20;;;;;;;19.40;16.13;;;25.00;99.90;;;;;;5033444;28;20556;-83
2022/06/21 12:31:51;;;;;;;22.52;16.80;;;25.20;99.90;;;;;;5031656;28;20188;-83
2022/06/21 12:35:01;;;;;;;19.88;14.45;;;25.20;99.90;;;;;;5028567;28;20305;-83
2022/06/21 12:37:41;;;;;;;24.48;15.20;;;25.30;99.90;;;;;;5011983;28;20194;-84
2022/06/21 12:40:33;;;;;;;16.65;14.35;;;25.00;99.90;;;;;;5034820;28;20206;-83
2022/06/21 12:43:46;;;;;;;19.73;16.08;;;24.90;99.90;;;;;;5022387;28;20331;-84
2022/06/21 12:46:35;;;;;;;23.65;15.32;;;24.80;99.90;;;;;;5012033;28;20919;-83
2022/06/21 12:49:27;;;;;;;18.58;15.13;;;24.70;99.90;;;;;;5022020;28;20176;-83
2022/06/21 12:52:05;;;;;;;20.77;15.18;;;24.70;99.90;;;;;;5043049;28;20194;-82
2022/06/21 12:54:56;;;;;;;17.85;13.57;;;24.90;99.90;;;;;;5020500;28;20254;-82
2022/06/21 12:58:09;;;;;;;19.85;13.70;;;25.00;99.90;;;;;;5035361;28;20569;-83
2022/06/21 13:00:49;;;;;;;19.83;13.25;;;25.00;99.90;;;;;;5045860;28;20992;-84
2022/06/21 13:03:53;;;;;;;15.32;12.27;;;24.90;99.90;;;;;;5025514;28;20287;-83
2022/06/21 13:06:32;;;;;;;23.25;12.65;;;24.80;99.90;;;;;;5018463;28;20648;-83
2022/06/21 13:09:29;;;;;;;14.93;10.43;;;24.80;99.90;;;;;;5037764;28;20206;-83
2022/06/21 13:12:35;;;;;;;18.08;10.80;;;24.80;99.90;;;;;;5054994;28;20192;-82
2022/06/21 13:15:01;;;;;;;20.23;10.70;;;24.70;99.90;;;;;;5004798;28;20834;-82
2022/06/21 13:18:05;;;;;;;17.20;9.73;;;24.80;99.90;;;;;;5017943;28;20263;-84
2022/06/21 13:21:09;;;;;;;15.60;9.40;;;24.80;99.90;;;;;;5041280;28;20201;-83
2022/06/21 13:23:58;;;;;;;19.95;10.63;;;24.80;99.90;;;;;;5019514;28;20188;-83
2022/06/21 13:26:58;;;;;;;16.17;9.00;;;24.80;99.90;;;;;;5044046;28;20198;-83
2022/06/21 13:29:58;;;;;;;15.15;9.55;;;24.90;99.90;;;;;;5028067;28;20635;-83
2022/06/21 13:32:30;;;;;;;15.73;8.98;;;24.80;99.90;;;;;;5044123;28;20278;-83
2022/06/21 13:35:30;;;;;;;21.50;9.32;;;24.70;99.90;;;;;;5036377;28;20187;-84
2022/06/21 13:38:22;;;;;;;15.02;8.73;;;24.70;99.90;;;;;;5029724;28;20196;-83
2022/06/21 13:41:06;;;;;;;15.38;8.77;;;24.70;99.90;;;;;;5034463;28;20220;-83
2022/06/21 13:43:46;;;;;;;16.88;8.95;;;24.70;99.90;;;;;;5047889;28;20280;-84
2022/06/21 13:46:28;;;;;;;18.48;9.30;;;24.70;99.90;;;;;;5060636;28;20207;-85
2022/06/21 13:49:02;;;;;;;20.95;10.88;;;24.70;99.90;;;;;;5043312;28;20270;-83
2022/06/21 13:51:55;;;;;;;19.92;12.10;;;24.80;99.90;;;;;;5062116;28;20251;-83
2022/06/21 13:54:47;;;;;;;24.40;11.25;;;24.90;99.90;;;;;;5036836;28;20584;-84
2022/06/21 13:57:44;;;;;;;14.07;10.07;;;25.10;99.90;;;;;;5019957;28;20187;-84
2022/06/21 14:00:15;;;;;;;20.23;9.93;;;25.10;99.90;;;;;;5020248;28;20211;-83
2022/06/21 14:03:22;;;;;;;13.30;9.38;;;25.10;99.90;;;;;;5044626;28;20203;-84
2022/06/21 14:06:27;;;;;;;16.55;9.95;;;25.10;99.90;;;;;;5034938;28;20187;-82
2022/06/21 14:09:09;;;;;;;17.65;9.43;;;24.90;99.90;;;;;;5025144;28;20195;-83
2022/06/21 14:11:51;;;;;;;17.02;10.07;;;24.70;99.90;;;;;;5047570;28;20180;-82
2022/06/21 14:14:25;;;;;;;15.20;8.70;;;24.70;99.90;;;;;;5026530;28;20241;-83
2022/06/21 14:17:15;;;;;;;11.65;8.88;;;24.60;99.90;;;;;;5051505;28;21024;-83
2022/06/21 14:20:01;;;;;;;15.45;8.82;;;24.50;99.90;;;;;;5024124;28;20269;-83
2022/06/21 14:23:06;;;;;;;18.52;8.68;;;24.60;99.90;;;;;;5042604;28;20203;-83
2022/06/21 14:25:44;;;;;;;15.25;8.68;;;24.70;99.90;;;;;;5025680;28;20188;-83
2022/06/21 14:28:50;;;;;;;11.57;9.02;;;24.80;99.90;;;;;;5028784;28;20547;-82
2022/06/21 14:31:44;;;;;;;11.82;9.02;;;24.70;99.90;;;;;;5035023;28;20184;-83